createdAt,value
2023-02-24T00:02:06.238Z,21.65
2023-02-24T00:04:39.801Z,21.50
2023-02-24T00:07:08.368Z,21.23
2023-02-24T00:09:35.784Z,21.55
2023-02-24T00:12:05.606Z,22.05
2023-02-24T00:14:35.131Z,19.88
2023-02-24T00:17:02.614Z,21.25
2023-02-24T00:19:34.448Z,21.10
2023-02-24T00:22:03.027Z,19.73
2023-02-24T00:24:30.099Z,19.17
2023-02-24T00:26:59.734Z,21.50
2023-02-24T00:29:29.112Z,22.35
2023-02-24T00:32:00.387Z,19.98
2023-02-24T00:34:33.639Z,20.98
2023-02-24T00:37:01.487Z,20.05
2023-02-24T00:39:32.716Z,21.20
2023-02-24T00:42:06.481Z,20.88
2023-02-24T00:44:43.837Z,19.02
2023-02-24T00:47:12.304Z,19.00
2023-02-24T00:49:43.507Z,21.02
2023-02-24T00:52:21.127Z,20.70
2023-02-24T00:54:49.551Z,20.23
2023-02-24T00:57:23.497Z,20.70
2023-02-24T00:59:51.855Z,19.48
2023-02-24T01:02:20.149Z,19.85
2023-02-24T01:04:47.148Z,20.17
2023-02-24T01:07:14.341Z,20.20
2023-02-24T01:09:41.997Z,18.08
2023-02-24T01:12:29.844Z,17.10
2023-02-24T01:14:57.038Z,17.35
2023-02-24T01:17:25.551Z,17.52
2023-02-24T01:19:52.882Z,19.38
2023-02-24T01:22:21.256Z,17.70
2023-02-24T01:24:48.599Z,17.63
2023-02-24T01:27:19.116Z,16.98
2023-02-24T01:29:48.916Z,18.02
2023-02-24T01:32:19.485Z,16.85
2023-02-24T01:34:47.475Z,19.50
2023-02-24T01:37:17.383Z,17.35
2023-02-24T01:39:48.256Z,17.65
2023-02-24T01:42:21.438Z,17.23
2023-02-24T01:44:48.359Z,19.52
2023-02-24T01:47:18.332Z,19.23
2023-02-24T01:49:49.739Z,19.55
2023-02-24T01:52:24.458Z,18.25
2023-02-24T01:55:31.687Z,18.08
2023-02-24T01:58:01.444Z,16.90
2023-02-24T02:00:38.221Z,16.92
2023-02-24T02:03:13.118Z,18.88
2023-02-24T02:05:42.524Z,17.58
2023-02-24T02:08:10.500Z,19.75
2023-02-24T02:10:39.651Z,21.52
2023-02-24T02:13:06.757Z,19.90
2023-02-24T02:15:41.244Z,21.55
2023-02-24T02:21:32.936Z,16.40
2023-02-24T02:24:22.259Z,17.15
2023-02-24T02:27:21.171Z,16.27
2023-02-24T02:30:14.284Z,16.60
2023-02-24T02:32:52.465Z,15.90
2023-02-24T02:35:38.498Z,16.67
2023-02-24T02:38:26.340Z,15.68
2023-02-24T02:41:14.674Z,14.77
2023-02-24T02:43:53.548Z,13.60
2023-02-24T02:46:37.590Z,13.48
2023-02-24T02:49:20.801Z,14.85
2023-02-24T02:51:56.947Z,13.15
2023-02-24T02:55:09.695Z,13.10
2023-02-24T02:57:40.320Z,12.23
2023-02-24T03:00:29.445Z,11.90
2023-02-24T03:03:07.367Z,12.07
2023-02-24T03:05:46.546Z,11.57
2023-02-24T03:08:19.125Z,10.75
2023-02-24T03:10:51.123Z,11.00
2023-02-24T03:13:24.311Z,10.65
2023-02-24T03:15:53.852Z,11.25
2023-02-24T03:18:32.732Z,9.80
2023-02-24T03:21:25.042Z,10.93
2023-02-24T03:23:53.930Z,8.73
2023-02-24T03:26:31.393Z,10.75
2023-02-24T03:29:04.377Z,7.95
2023-02-24T03:31:44.047Z,8.77
2023-02-24T03:34:21.296Z,7.90
2023-02-24T03:36:48.625Z,8.02
2023-02-24T03:39:16.086Z,7.57
2023-02-24T03:41:50.881Z,6.63
2023-02-24T03:44:17.845Z,6.97
2023-02-24T03:46:44.828Z,6.13
2023-02-24T03:49:14.253Z,6.47
2023-02-24T03:51:44.988Z,6.30
2023-02-24T03:54:14.890Z,6.57
2023-02-24T03:57:03.591Z,5.32
2023-02-24T04:00:22.664Z,5.47
2023-02-24T04:03:03.675Z,4.80
2023-02-24T04:05:33.557Z,6.00
2023-02-24T04:08:09.272Z,5.47
2023-02-24T04:11:00.689Z,4.53
2023-02-24T04:13:45.039Z,4.30
2023-02-24T04:16:28.151Z,3.97
2023-02-24T04:19:03.982Z,4.28
2023-02-24T04:21:32.446Z,4.47
2023-02-24T04:24:06.394Z,3.95
2023-02-24T04:26:36.668Z,3.70
2023-02-24T04:29:03.843Z,4.10
2023-02-24T04:31:33.527Z,4.07
2023-02-24T04:34:02.025Z,4.00
2023-02-24T04:36:28.940Z,4.05
2023-02-24T04:38:55.954Z,2.95
2023-02-24T04:41:23.588Z,3.47
2023-02-24T04:43:50.978Z,3.45
2023-02-24T04:46:20.867Z,3.72
2023-02-24T04:48:47.909Z,3.25
2023-02-24T04:51:14.813Z,2.80
2023-02-24T04:53:42.112Z,2.92
2023-02-24T04:56:09.277Z,3.42
2023-02-24T04:58:41.303Z,2.55
2023-02-24T05:01:10.799Z,2.95
2023-02-24T05:03:42.344Z,2.10
2023-02-24T05:06:16.139Z,2.17
2023-02-24T05:08:43.732Z,1.93
2023-02-24T05:11:19.104Z,2.25
2023-02-24T05:13:46.389Z,2.05
2023-02-24T05:16:16.068Z,2.20
2023-02-24T05:18:44.749Z,2.13
2023-02-24T05:21:38.506Z,2.67
2023-02-24T05:24:08.319Z,2.75
2023-02-24T05:26:37.535Z,3.80
2023-02-24T05:29:06.885Z,3.03
2023-02-24T05:31:34.433Z,2.70
2023-02-24T05:34:05.662Z,2.53
2023-02-24T05:36:41.593Z,2.80
2023-02-24T05:39:14.687Z,4.43
2023-02-24T05:41:42.821Z,3.40
2023-02-24T05:44:15.862Z,3.70
2023-02-24T05:46:45.541Z,3.90
2023-02-24T05:49:15.327Z,4.10
2023-02-24T05:51:54.787Z,3.13
2023-02-24T05:54:28.886Z,4.03
2023-02-24T05:57:00.391Z,3.45
2023-02-24T05:59:32.748Z,3.47
2023-02-24T06:02:07.286Z,3.10
2023-02-24T06:04:45.861Z,3.45
2023-02-24T06:07:14.351Z,3.10
2023-02-24T06:09:43.062Z,4.82
2023-02-24T06:12:10.522Z,2.85
2023-02-24T06:14:37.689Z,3.63
2023-02-24T06:17:04.633Z,3.08
2023-02-24T06:19:34.310Z,3.40
2023-02-24T06:22:02.209Z,2.97
2023-02-24T06:24:31.415Z,2.70
2023-02-24T06:27:09.836Z,2.75
2023-02-24T06:29:38.439Z,3.10
2023-02-24T06:32:08.876Z,2.70
2023-02-24T06:34:40.114Z,3.40
2023-02-24T06:37:08.450Z,3.10
2023-02-24T06:39:36.730Z,3.05
2023-02-24T06:42:05.288Z,2.83
2023-02-24T06:44:32.917Z,3.10
2023-02-24T06:47:00.164Z,3.50
2023-02-24T06:49:27.472Z,2.88
2023-02-24T06:51:55.188Z,2.70
2023-02-24T06:54:22.724Z,2.33
2023-02-24T06:56:52.698Z,2.88
2023-02-24T06:59:22.269Z,2.55
2023-02-24T07:01:49.845Z,2.72
2023-02-24T07:04:18.109Z,2.17
2023-02-24T07:06:52.571Z,2.60
2023-02-24T07:09:23.511Z,2.33
2023-02-24T07:11:52.427Z,2.40
2023-02-24T07:14:22.300Z,2.80
2023-02-24T07:16:54.525Z,2.53
2023-02-24T07:19:32.522Z,3.22
2023-02-24T07:22:03.194Z,3.33
2023-02-24T07:24:33.564Z,3.20
2023-02-24T07:27:08.731Z,3.70
2023-02-24T07:29:37.864Z,3.00
2023-02-24T07:32:08.901Z,4.20
2023-02-24T07:34:40.391Z,3.22
2023-02-24T07:37:08.752Z,3.30
2023-02-24T07:39:37.616Z,3.55
2023-02-24T07:42:05.897Z,3.38
2023-02-24T07:44:33.288Z,2.70
2023-02-24T07:50:48.465Z,3.42
2023-02-24T07:53:16.732Z,3.85
2023-02-24T07:55:43.681Z,2.95
2023-02-24T08:02:24.051Z,3.42
2023-02-24T08:04:51.729Z,2.55
2023-02-24T08:07:25.175Z,2.90
2023-02-24T08:10:14.120Z,2.22
2023-02-24T08:12:43.086Z,2.65
2023-02-24T08:15:17.581Z,2.53
2023-02-24T08:20:14.753Z,3.20
2023-02-24T08:22:44.479Z,3.17
2023-02-24T08:25:18.723Z,2.90
2023-02-24T08:28:07.437Z,2.58
2023-02-24T08:30:40.580Z,3.15
2023-02-24T08:33:11.099Z,3.17
2023-02-24T08:35:44.716Z,3.00
2023-02-24T08:38:18.366Z,2.60
2023-02-24T08:40:51.676Z,2.50
2023-02-24T08:43:30.205Z,3.22
2023-02-24T08:46:01.105Z,2.38
2023-02-24T08:48:38.361Z,2.28
2023-02-24T08:51:07.553Z,2.60
2023-02-24T08:53:35.240Z,2.45
2023-02-24T08:56:09.826Z,2.85
2023-02-24T08:58:41.133Z,1.70
2023-02-24T09:01:19.435Z,2.22
2023-02-24T09:03:48.426Z,2.28
2023-02-24T09:06:25.492Z,2.03
2023-02-24T09:09:15.330Z,1.80
2023-02-24T09:11:44.308Z,1.70
2023-02-24T09:14:25.976Z,2.47
2023-02-24T09:17:03.683Z,2.10
2023-02-24T09:19:48.548Z,2.65
2023-02-24T09:22:37.643Z,2.38
2023-02-24T09:25:25.913Z,2.58
2023-02-24T09:27:55.440Z,2.58
2023-02-24T09:30:37.503Z,2.05
2023-02-24T09:33:41.828Z,2.28
2023-02-24T09:36:13.421Z,3.05
2023-02-24T09:39:00.036Z,2.88
2023-02-24T09:41:33.323Z,2.22
2023-02-24T09:44:18.507Z,2.92
2023-02-24T09:46:55.078Z,2.78
2023-02-24T09:49:40.216Z,3.10
2023-02-24T09:52:17.518Z,2.92
2023-02-24T09:55:11.099Z,3.50
2023-02-24T09:58:17.160Z,3.40
2023-02-24T10:01:22.923Z,2.58
2023-02-24T10:03:51.798Z,2.30
2023-02-24T10:06:26.978Z,2.67
2023-02-24T10:09:11.834Z,2.50
2023-02-24T10:15:00.105Z,2.42
2023-02-24T10:17:40.397Z,3.03
2023-02-24T10:20:31.102Z,2.95
2023-02-24T10:23:33.114Z,2.42
2023-02-24T10:26:09.646Z,3.40
2023-02-24T10:28:59.998Z,2.38
2023-02-24T10:31:36.906Z,2.60
2023-02-24T10:34:21.530Z,2.40
2023-02-24T10:36:50.570Z,2.05
2023-02-24T10:39:26.793Z,2.55
2023-02-24T10:41:57.907Z,2.50
2023-02-24T10:44:36.488Z,4.40
2023-02-24T10:47:13.839Z,2.72
2023-02-24T10:49:57.847Z,2.33
2023-02-24T10:52:37.519Z,2.47
2023-02-24T10:55:28.856Z,2.33
2023-02-24T10:58:06.596Z,2.00
2023-02-24T11:01:07.340Z,3.13
2023-02-24T11:03:43.550Z,2.03
2023-02-24T11:06:42.380Z,2.10
2023-02-24T11:09:28.953Z,2.35
2023-02-24T11:12:16.782Z,3.00
2023-02-24T11:15:34.641Z,2.80
2023-02-24T11:18:02.801Z,2.47
2023-02-24T11:20:48.952Z,2.60
2023-02-24T11:23:29.545Z,2.70
2023-02-24T11:26:11.946Z,3.08
2023-02-24T11:28:49.869Z,2.38
2023-02-24T11:31:31.231Z,2.50
2023-02-24T11:33:58.235Z,2.45
2023-02-24T11:36:37.233Z,2.45
2023-02-24T11:39:21.279Z,2.90
2023-02-24T11:41:53.981Z,2.40
2023-02-24T11:44:29.896Z,2.30
2023-02-24T11:47:02.818Z,3.72
2023-02-24T11:50:00.790Z,2.83
2023-02-24T11:52:38.694Z,2.30
2023-02-24T11:55:28.037Z,2.20
2023-02-24T11:57:59.392Z,2.53
2023-02-24T12:00:31.011Z,2.28
2023-02-24T12:03:04.362Z,3.30
2023-02-24T12:05:37.195Z,1.90
2023-02-24T12:08:10.643Z,2.90
2023-02-24T12:10:50.606Z,2.60
2023-02-24T12:14:06.988Z,2.78
2023-02-24T12:16:42.147Z,3.03
2023-02-24T12:19:59.409Z,2.22
2023-02-24T12:23:10.797Z,2.42
2023-02-24T12:26:06.925Z,4.18
2023-02-24T12:28:58.452Z,2.15
2023-02-24T12:31:32.274Z,1.90
2023-02-24T12:34:12.532Z,2.33
2023-02-24T12:36:55.607Z,2.22
2023-02-24T12:39:44.116Z,2.70
2023-02-24T12:42:48.096Z,2.75
2023-02-24T12:45:34.024Z,2.15
2023-02-24T12:48:24.893Z,2.35
2023-02-24T12:51:02.143Z,3.13
2023-02-24T12:53:34.913Z,2.20
2023-02-24T12:56:24.816Z,2.67
2023-02-24T12:59:00.041Z,2.33
2023-02-24T13:01:45.960Z,2.50
2023-02-24T13:04:25.008Z,2.05
2023-02-24T13:07:15.061Z,2.13
2023-02-24T13:10:01.546Z,2.83
2023-02-24T13:12:38.412Z,2.00
2023-02-24T13:15:07.029Z,2.63
2023-02-24T13:17:33.996Z,2.30
2023-02-24T13:20:11.722Z,1.85
2023-02-24T13:22:42.823Z,1.90
2023-02-24T13:25:21.717Z,2.35
2023-02-24T13:28:00.846Z,1.80
2023-02-24T13:30:57.687Z,2.33
2023-02-24T13:33:30.049Z,2.88
2023-02-24T13:36:21.721Z,1.90
2023-02-24T13:38:58.086Z,1.75
2023-02-24T13:41:37.528Z,1.85
2023-02-24T13:44:27.113Z,1.73
2023-02-24T13:47:12.084Z,1.90
2023-02-24T13:50:16.419Z,2.10
2023-02-24T13:52:43.316Z,2.03
2023-02-24T13:55:15.965Z,2.03
2023-02-24T13:57:55.065Z,2.22
2023-02-24T14:00:47.840Z,2.47
2023-02-24T14:03:24.668Z,2.33
2023-02-24T14:05:51.933Z,1.73
2023-02-24T14:08:40.887Z,2.10
2023-02-24T14:11:12.136Z,3.50
2023-02-24T14:13:40.037Z,2.22
2023-02-24T14:16:11.874Z,3.03
2023-02-24T14:18:40.005Z,2.22
2023-02-24T14:21:07.012Z,2.40
2023-02-24T14:23:35.162Z,2.80
2023-02-24T14:26:08.245Z,1.85
2023-02-24T14:28:37.698Z,1.52
2023-02-24T14:31:16.149Z,2.70
2023-02-24T14:33:45.344Z,2.13
2023-02-24T14:36:19.014Z,2.10
2023-02-24T14:38:46.385Z,2.95
2023-02-24T14:41:24.768Z,3.58
2023-02-24T14:43:52.783Z,2.47
2023-02-24T14:46:20.844Z,2.53
2023-02-24T14:48:54.060Z,2.50
2023-02-24T14:51:31.986Z,1.83
2023-02-24T14:54:03.594Z,2.10
2023-02-24T14:56:35.641Z,2.08
2023-02-24T14:59:16.160Z,2.58
2023-02-24T15:05:24.329Z,2.30
2023-02-24T15:07:51.939Z,2.35
2023-02-24T15:10:30.973Z,2.88
2023-02-24T15:13:16.219Z,2.03
2023-02-24T15:15:43.428Z,2.47
2023-02-24T15:18:25.840Z,3.10
2023-02-24T15:21:04.693Z,2.45
2023-02-24T15:23:38.782Z,3.35
2023-02-24T15:26:08.897Z,2.35
2023-02-24T15:28:37.633Z,2.88
2023-02-24T15:31:11.496Z,3.38
2023-02-24T15:33:44.789Z,3.63
2023-02-24T15:36:19.326Z,2.25
2023-02-24T15:38:51.196Z,2.42
2023-02-24T15:41:18.224Z,2.35
2023-02-24T15:43:47.508Z,2.35
2023-02-24T15:46:21.133Z,2.40
2023-02-24T15:48:53.632Z,3.00
2023-02-24T15:51:36.975Z,4.13
2023-02-24T15:54:15.110Z,2.72
2023-02-24T15:56:43.000Z,2.60
2023-02-24T15:59:22.121Z,2.78
2023-02-24T16:01:49.246Z,2.80
2023-02-24T16:04:16.301Z,2.40
2023-02-24T16:06:54.109Z,2.38
2023-02-24T16:09:33.961Z,3.22
2023-02-24T16:12:03.395Z,3.35
2023-02-24T16:14:30.597Z,4.13
2023-02-24T16:16:58.254Z,2.72
2023-02-24T16:19:25.220Z,3.33
2023-02-24T16:21:52.171Z,3.38
2023-02-24T16:24:21.448Z,3.28
2023-02-24T16:26:48.807Z,3.38
2023-02-24T16:29:16.162Z,2.72
2023-02-24T16:31:43.501Z,2.65
2023-02-24T16:34:14.973Z,2.53
2023-02-24T16:36:43.218Z,3.10
2023-02-24T16:39:12.683Z,2.70
2023-02-24T16:41:39.751Z,3.63
2023-02-24T16:44:06.966Z,3.25
2023-02-24T16:46:38.138Z,3.38
2023-02-24T16:49:10.179Z,3.00
2023-02-24T16:51:39.164Z,4.22
2023-02-24T16:54:06.314Z,4.00
2023-02-24T16:56:33.334Z,3.72
2023-02-24T16:59:00.462Z,3.33
2023-02-24T17:01:27.491Z,3.50
2023-02-24T17:03:54.735Z,4.43
2023-02-24T17:06:23.894Z,3.95
2023-02-24T17:08:51.525Z,3.85
2023-02-24T17:11:20.472Z,3.95
2023-02-24T17:13:47.625Z,3.08
2023-02-24T17:16:14.638Z,3.20
2023-02-24T17:18:41.927Z,5.03
2023-02-24T17:21:13.499Z,3.83
2023-02-24T17:23:40.664Z,3.88
2023-02-24T17:26:08.455Z,4.65
2023-02-24T17:28:35.548Z,3.80
2023-02-24T17:31:02.634Z,3.10
2023-02-24T17:33:29.743Z,3.75
2023-02-24T17:35:56.718Z,3.45
2023-02-24T17:38:24.307Z,3.78
2023-02-24T17:40:51.322Z,3.30
2023-02-24T17:43:19.154Z,4.18
2023-02-24T17:45:47.212Z,3.70
2023-02-24T17:48:15.954Z,3.90
2023-02-24T17:50:44.425Z,4.45
2023-02-24T17:53:11.551Z,4.05
2023-02-24T17:55:39.510Z,4.30
2023-02-24T17:58:08.409Z,4.53
2023-02-24T18:00:35.414Z,3.95
2023-02-24T18:03:03.635Z,3.85
2023-02-24T18:05:30.681Z,3.92
2023-02-24T18:07:58.889Z,4.28
2023-02-24T18:10:27.375Z,4.68
2023-02-24T18:12:54.607Z,4.57
2023-02-24T18:15:21.719Z,4.38
2023-02-24T18:17:48.644Z,4.13
2023-02-24T18:20:15.668Z,4.90
2023-02-24T18:22:42.814Z,4.38
2023-02-24T18:25:09.901Z,4.43
2023-02-24T18:27:37.029Z,4.10
2023-02-24T18:30:04.467Z,4.50
2023-02-24T18:32:31.594Z,4.03
2023-02-24T18:34:58.697Z,4.95
2023-02-24T18:37:25.695Z,5.32
2023-02-24T18:39:53.396Z,3.83
2023-02-24T18:42:20.402Z,4.93
2023-02-24T18:44:47.448Z,4.22
2023-02-24T18:47:14.417Z,4.45
2023-02-24T18:49:41.405Z,5.47
2023-02-24T18:52:08.440Z,5.03
2023-02-24T18:54:35.462Z,5.18
2023-02-24T18:57:02.751Z,4.70
2023-02-24T18:59:29.797Z,5.25
2023-02-24T19:01:57.343Z,4.85
2023-02-24T19:04:24.771Z,5.25
2023-02-24T19:06:51.951Z,5.22
2023-02-24T19:13:07.788Z,5.18
2023-02-24T19:15:41.026Z,5.55
2023-02-24T19:18:07.991Z,5.43
2023-02-24T19:20:34.998Z,5.40
2023-02-24T19:23:02.158Z,5.22
2023-02-24T19:25:29.144Z,5.40
2023-02-24T19:27:56.097Z,5.90
2023-02-24T19:30:23.101Z,4.82
2023-02-24T19:32:50.248Z,5.95
2023-02-24T19:35:17.501Z,5.18
2023-02-24T19:37:47.345Z,5.10
2023-02-24T19:40:14.930Z,5.13
2023-02-24T19:42:42.848Z,6.53
2023-02-24T19:45:10.215Z,6.45
2023-02-24T19:47:37.218Z,5.18
2023-02-24T19:50:04.305Z,5.70
2023-02-24T19:52:31.257Z,6.32
2023-02-24T19:54:58.290Z,5.57
2023-02-24T19:57:25.175Z,5.25
2023-02-24T19:59:52.195Z,6.05
2023-02-24T20:02:19.392Z,6.07
2023-02-24T20:04:46.670Z,5.80
2023-02-24T20:11:02.420Z,6.25
2023-02-24T20:13:29.723Z,5.95
2023-02-24T20:16:07.203Z,5.60
2023-02-24T20:18:34.400Z,6.10
2023-02-24T20:21:01.945Z,6.22
2023-02-24T20:23:29.027Z,5.30
2023-02-24T20:25:57.159Z,5.75
2023-02-24T20:28:24.823Z,6.18
2023-02-24T20:30:51.899Z,7.07
2023-02-24T20:33:19.681Z,6.53
2023-02-24T20:35:46.710Z,5.88
2023-02-24T20:38:14.338Z,6.00
2023-02-24T20:40:41.320Z,6.03
2023-02-24T20:43:10.584Z,5.43
2023-02-24T20:45:38.963Z,5.85
2023-02-24T20:48:06.785Z,5.78
2023-02-24T20:50:34.556Z,6.97
2023-02-24T20:53:03.501Z,7.20
2023-02-24T20:55:31.066Z,6.57
2023-02-24T20:57:58.372Z,6.63
2023-02-24T21:00:25.978Z,6.85
2023-02-24T21:02:53.052Z,7.07
2023-02-24T21:05:22.516Z,6.55
2023-02-24T21:07:50.532Z,6.72
2023-02-24T21:10:18.456Z,6.00
2023-02-24T21:12:45.967Z,6.30
2023-02-24T21:15:12.975Z,6.93
2023-02-24T21:17:40.293Z,9.25
2023-02-24T21:20:11.226Z,6.22
2023-02-24T21:22:39.647Z,6.43
2023-02-24T21:25:08.178Z,6.28
2023-02-24T21:27:35.103Z,7.18
2023-02-24T21:30:02.276Z,6.55
2023-02-24T21:32:29.331Z,6.78
2023-02-24T21:34:56.562Z,7.03
2023-02-24T21:37:23.467Z,7.05
2023-02-24T21:39:50.451Z,9.32
2023-02-24T21:42:17.618Z,6.35
2023-02-24T21:44:44.797Z,6.97
2023-02-24T21:47:11.886Z,6.35
2023-02-24T21:49:38.962Z,6.82
2023-02-24T21:52:05.914Z,7.07
2023-02-24T21:54:33.023Z,7.00
2023-02-24T21:57:00.317Z,6.78
2023-02-24T21:59:27.904Z,7.68
2023-02-24T22:05:50.109Z,7.13
2023-02-24T22:08:17.143Z,6.43
2023-02-24T22:10:44.141Z,6.93
2023-02-24T22:13:11.226Z,7.43
2023-02-24T22:15:41.323Z,6.47
2023-02-24T22:18:08.258Z,8.55
2023-02-24T22:20:35.286Z,7.32
2023-02-24T22:26:44.191Z,7.15
2023-02-24T22:29:11.505Z,13.75
2023-02-24T22:31:39.260Z,8.15
2023-02-24T22:34:06.779Z,6.25
2023-02-24T22:36:36.807Z,6.35
2023-02-24T22:39:05.045Z,7.13
2023-02-24T22:41:34.581Z,6.78
2023-02-24T22:44:03.980Z,7.50
2023-02-24T22:46:33.761Z,7.63
2023-02-24T22:49:01.128Z,7.18
2023-02-24T22:51:28.881Z,6.63
2023-02-24T22:53:56.486Z,7.85
2023-02-24T22:56:26.420Z,6.82
2023-02-24T22:58:53.545Z,7.55
2023-02-24T23:01:23.614Z,9.98
2023-02-24T23:03:50.883Z,8.50
2023-02-24T23:06:21.178Z,8.95
2023-02-24T23:08:50.066Z,8.18
2023-02-24T23:11:21.130Z,7.90
2023-02-24T23:13:50.135Z,6.85
2023-02-24T23:16:23.890Z,6.07
2023-02-24T23:18:53.165Z,7.97
2023-02-24T23:21:22.955Z,7.88
2023-02-24T23:23:53.560Z,7.50
2023-02-24T23:26:21.039Z,7.95
2023-02-24T23:28:48.226Z,7.93
2023-02-24T23:31:22.330Z,8.45
2023-02-24T23:33:50.515Z,8.02
2023-02-24T23:36:18.514Z,7.43
2023-02-24T23:38:46.030Z,7.53
2023-02-24T23:41:13.806Z,8.25
2023-02-24T23:43:41.215Z,7.88
2023-02-24T23:46:12.077Z,7.80
2023-02-24T23:48:39.967Z,7.47
2023-02-24T23:51:10.474Z,7.85
2023-02-24T23:53:39.197Z,8.05
2023-02-24T23:56:11.509Z,7.82
2023-02-24T23:58:38.554Z,8.18
